Time;durP1;ratioP1;P1;durP2;ratioP2;P2;SDS_P1;SDS_P2;PMS_P1;PMS_P2;Temp;Humidity;BMP_temperature;BMP_pressure;BME280_temperature;BME280_humidity;BME280_pressure;Samples;Min_cycle;Max_cycle;Signal;HPM_P1;HPM_P2
2021/12/12 00:00:39;;;;;;;40.90;36.33;;;;;;;;;;12484335;28;20044;-77
2021/12/12 00:06:44;;;;;;;35.53;31.77;;;;;;;;;;12500266;28;20056;-76
2021/12/12 00:12:50;;;;;;;41.38;37.00;;;;;;;;;;12500190;28;20045;-77
2021/12/12 00:18:52;;;;;;;34.78;30.02;;;;;;;;;;12499831;28;20053;-76
2021/12/12 00:24:54;;;;;;;46.33;41.40;;;;;;;;;;12500629;28;20052;-77
2021/12/12 00:30:59;;;;;;;43.23;38.73;;;;;;;;;;12499520;28;20038;-76
2021/12/12 00:37:01;;;;;;;40.13;35.92;;;;;;;;;;12499047;28;20033;-76
2021/12/12 00:43:05;;;;;;;36.55;32.60;;;;;;;;;;12498718;28;20043;-76
2021/12/12 00:49:07;;;;;;;34.33;30.77;;;;;;;;;;12500171;28;20049;-76
2021/12/12 00:55:09;;;;;;;33.70;30.00;;;;;;;;;;12498197;28;20224;-76
2021/12/12 01:01:14;;;;;;;32.60;29.20;;;;;;;;;;12497823;28;20056;-75
2021/12/12 01:07:19;;;;;;;34.90;31.35;;;;;;;;;;12498426;28;20060;-76
2021/12/12 01:13:21;;;;;;;39.03;35.00;;;;;;;;;;12480922;28;20040;-76
2021/12/12 01:19:25;;;;;;;32.77;29.53;;;;;;;;;;12498308;28;20490;-75
2021/12/12 01:25:29;;;;;;;31.83;28.70;;;;;;;;;;12480280;28;20643;-75
2021/12/12 01:31:32;;;;;;;32.30;29.00;;;;;;;;;;12496563;28;20056;-75
2021/12/12 01:37:38;;;;;;;31.92;28.65;;;;;;;;;;12479654;28;20029;-75
2021/12/12 01:43:43;;;;;;;28.25;25.50;;;;;;;;;;12479439;28;20045;-75
2021/12/12 01:49:46;;;;;;;29.73;26.60;;;;;;;;;;12497488;28;20033;-75
2021/12/12 01:55:51;;;;;;;32.53;29.17;;;;;;;;;;12495334;28;20060;-75
2021/12/12 02:02:08;;;;;;;34.05;30.55;;;;;;;;;;12478811;28;20038;-75
2021/12/12 02:08:12;;;;;;;36.22;32.42;;;;;;;;;;12495918;28;20041;-76
2021/12/12 02:14:15;;;;;;;33.33;30.02;;;;;;;;;;12493727;28;20049;-76
2021/12/12 02:20:28;;;;;;;31.35;28.30;;;;;;;;;;12478120;28;20411;-75
2021/12/12 02:39:16;;;;;;;24.55;22.05;;;;;;;;;;12493804;28;20491;-76
2021/12/12 02:45:19;;;;;;;24.80;22.30;;;;;;;;;;12477194;28;20056;-75
2021/12/12 02:55:00;;;;;;;26.83;24.23;;;;;;;;;;12790251;27;20480;-76
2021/12/12 03:01:08;;;;;;;26.48;23.75;;;;;;;;;;12754855;27;20388;-76
2021/12/12 03:07:10;;;;;;;24.83;22.45;;;;;;;;;;12771615;27;20039;-76
2021/12/12 03:13:12;;;;;;;26.30;23.67;;;;;;;;;;12771177;27;20046;-76
2021/12/12 03:19:19;;;;;;;23.90;19.20;;;;;;;;;;12753128;27;20285;-77
2021/12/12 03:25:22;;;;;;;28.85;26.00;;;;;;;;;;12789046;27;20046;-76
2021/12/12 03:31:28;;;;;;;19.65;16.40;;;;;;;;;;12753002;27;20039;-76
2021/12/12 03:37:31;;;;;;;24.75;22.35;;;;;;;;;;12769752;27;20038;-76
2021/12/12 03:43:34;;;;;;;20.20;18.10;;;;;;;;;;12788091;27;20038;-77
2021/12/12 03:49:37;;;;;;;18.88;16.95;;;;;;;;;;12769170;27;20064;-75
2021/12/12 03:55:40;;;;;;;13.18;11.85;;;;;;;;;;12787755;27;20041;-76
2021/12/12 04:01:47;;;;;;;16.98;15.20;;;;;;;;;;12760924;27;20043;-76
2021/12/12 04:07:49;;;;;;;18.88;17.00;;;;;;;;;;12734565;27;20047;-76
2021/12/12 04:13:52;;;;;;;21.57;19.23;;;;;;;;;;12734432;27;20039;-76
2021/12/12 04:19:55;;;;;;;25.92;21.65;;;;;;;;;;12717177;27;20062;-76
2021/12/12 04:26:12;;;;;;;19.13;17.08;;;;;;;;;;12752550;27;20031;-76
2021/12/12 04:32:16;;;;;;;16.42;14.70;;;;;;;;;;12716202;27;20039;-76
2021/12/12 04:38:18;;;;;;;20.88;18.70;;;;;;;;;;12751220;27;20042;-76
2021/12/12 04:44:24;;;;;;;16.85;15.00;;;;;;;;;;12715718;27;20039;-76
2021/12/12 04:50:32;;;;;;;11.95;10.70;;;;;;;;;;12732083;27;20058;-76
2021/12/12 04:56:40;;;;;;;18.88;16.35;;;;;;;;;;12732110;27;20042;-76
2021/12/12 05:02:53;;;;;;;15.77;14.25;;;;;;;;;;12731347;27;20039;-76
2021/12/12 05:09:10;;;;;;;12.82;11.38;;;;;;;;;;12749704;27;20058;-76
2021/12/12 05:15:16;;;;;;;16.42;14.18;;;;;;;;;;12729864;27;20042;-76
2021/12/12 05:21:25;;;;;;;15.40;13.88;;;;;;;;;;12730644;27;20392;-76
2021/12/12 05:27:28;;;;;;;13.40;12.00;;;;;;;;;;12730559;27;20343;-76
2021/12/12 05:33:30;;;;;;;13.63;12.05;;;;;;;;;;12748634;27;20058;-76
2021/12/12 05:39:33;;;;;;;16.55;13.40;;;;;;;;;;12712808;27;20031;-76
2021/12/12 05:45:36;;;;;;;16.55;14.35;;;;;;;;;;12729514;27;20031;-76
2021/12/12 05:51:38;;;;;;;18.23;16.23;;;;;;;;;;12747211;27;20051;-76
2021/12/12 05:57:43;;;;;;;18.73;16.15;;;;;;;;;;12711657;27;20019;-75
2021/12/12 06:03:45;;;;;;;15.68;13.75;;;;;;;;;;12728477;27;20031;-77
2021/12/12 06:09:47;;;;;;;;;;;;;;;;;;12728648;27;20403;-77
2021/12/12 06:15:50;;;;;;;14.88;13.10;;;;;;;;;;12746324;27;19914;-76
2021/12/12 06:21:54;;;;;;;17.05;15.20;;;;;;;;;;12711524;27;20032;-76
2021/12/12 06:27:56;;;;;;;15.43;13.35;;;;;;;;;;12710509;27;20035;-76
2021/12/12 06:33:58;;;;;;;20.50;17.88;;;;;;;;;;12710704;27;20042;-77
2021/12/12 06:40:00;;;;;;;15.70;14.07;;;;;;;;;;12745603;27;20468;-75
2021/12/12 06:46:04;;;;;;;16.20;14.50;;;;;;;;;;12709905;27;20023;-76
2021/12/12 06:52:07;;;;;;;12.45;11.18;;;;;;;;;;12745076;28;20052;-75
2021/12/12 06:58:09;;;;;;;13.68;11.98;;;;;;;;;;12726919;28;20038;-76
2021/12/12 07:04:13;;;;;;;12.43;11.15;;;;;;;;;;12709622;28;20054;-76
2021/12/12 07:10:16;;;;;;;18.33;15.73;;;;;;;;;;12744476;28;20407;-76
2021/12/12 07:16:18;;;;;;;14.70;12.63;;;;;;;;;;12726598;28;20031;-76
2021/12/12 07:22:20;;;;;;;13.93;12.32;;;;;;;;;;12710147;28;20027;-76
2021/12/12 07:28:22;;;;;;;17.53;15.67;;;;;;;;;;12709275;28;20039;-76
2021/12/12 07:34:25;;;;;;;20.15;18.17;;;;;;;;;;12726145;28;20050;-76
2021/12/12 07:40:28;;;;;;;12.07;10.87;;;;;;;;;;12733381;27;20031;-76
2021/12/12 07:46:30;;;;;;;11.65;10.50;;;;;;;;;;12718110;27;20031;-77
2021/12/12 07:52:32;;;;;;;15.87;14.23;;;;;;;;;;12734382;27;20054;-76
2021/12/12 07:58:35;;;;;;;12.25;11.05;;;;;;;;;;12734568;27;20479;-77
2021/12/12 08:04:37;;;;;;;;;;;;;;;;;;12734845;27;20039;-77
2021/12/12 08:10:40;;;;;;;10.60;9.55;;;;;;;;;;12716796;27;20364;-77
2021/12/12 08:16:42;;;;;;;12.93;11.63;;;;;;;;;;12751904;27;20050;-77
2021/12/12 08:22:44;;;;;;;11.73;10.68;;;;;;;;;;12752566;27;20416;-77
2021/12/12 08:28:48;;;;;;;14.77;13.38;;;;;;;;;;12716151;27;20392;-76
2021/12/12 08:34:50;;;;;;;15.40;14.07;;;;;;;;;;12732868;27;20507;-76
2021/12/12 08:40:56;;;;;;;17.13;15.43;;;;;;;;;;12715853;27;20023;-77
2021/12/12 08:47:00;;;;;;;16.48;14.93;;;;;;;;;;12715282;27;20027;-77
2021/12/12 08:53:05;;;;;;;20.92;18.83;;;;;;;;;;12714783;27;20063;-77
2021/12/12 08:59:08;;;;;;;16.75;14.88;;;;;;;;;;12749816;27;20038;-77
2021/12/12 09:05:13;;;;;;;14.85;13.45;;;;;;;;;;12731636;27;20048;-77
2021/12/12 09:11:20;;;;;;;17.10;15.50;;;;;;;;;;12749252;27;20039;-77
2021/12/12 09:17:27;;;;;;;13.13;11.82;;;;;;;;;;12730763;27;20035;-77
2021/12/12 09:23:34;;;;;;;14.60;13.27;;;;;;;;;;12730943;27;20035;-77
2021/12/12 09:29:37;;;;;;;14.85;13.45;;;;;;;;;;12729709;27;20035;-77
2021/12/12 09:35:43;;;;;;;13.55;12.25;;;;;;;;;;12696297;27;20492;-77
2021/12/12 09:41:52;;;;;;;11.98;10.77;;;;;;;;;;12712958;27;20042;-77
2021/12/12 09:54:24;;;;;;;9.93;8.65;;;;;;;;;;12747428;27;20047;-77
2021/12/12 10:00:32;;;;;;;8.47;7.77;;;;;;;;;;12746635;27;20039;-76
2021/12/12 10:06:56;;;;;;;13.93;11.73;;;;;;;;;;12711746;27;20034;-76
2021/12/12 10:13:01;;;;;;;18.95;16.67;;;;;;;;;;12746512;27;20491;-76
2021/12/12 10:19:13;;;;;;;11.15;10.05;;;;;;;;;;12711056;27;20031;-76
2021/12/12 10:25:16;;;;;;;10.02;9.02;;;;;;;;;;12710976;27;20042;-76
2021/12/12 10:31:18;;;;;;;;;;;;;;;;;;12746257;27;20045;-76
2021/12/12 10:37:25;;;;;;;11.18;10.00;;;;;;;;;;12726743;27;19907;-76
2021/12/12 10:43:31;;;;;;;16.15;13.15;;;;;;;;;;12710361;27;20038;-77
2021/12/12 10:49:48;;;;;;;17.27;15.48;;;;;;;;;;12709766;27;20055;-76
2021/12/12 10:56:04;;;;;;;22.33;19.77;;;;;;;;;;12709800;28;20488;-76
2021/12/12 11:02:11;;;;;;;14.32;12.40;;;;;;;;;;12726652;28;20027;-77
2021/12/12 11:08:24;;;;;;;12.70;11.23;;;;;;;;;;12709707;28;20035;-77
2021/12/12 11:14:35;;;;;;;11.35;7.68;;;;;;;;;;12715745;27;20047;-77
2021/12/12 11:20:42;;;;;;;10.88;9.38;;;;;;;;;;12755610;27;20035;-77
2021/12/12 11:26:49;;;;;;;15.95;14.23;;;;;;;;;;12719329;27;20042;-77
2021/12/12 11:32:52;;;;;;;12.55;11.32;;;;;;;;;;12735848;27;20042;-77
2021/12/12 11:39:12;;;;;;;11.55;10.48;;;;;;;;;;12735838;27;20027;-77
2021/12/12 11:45:18;;;;;;;11.52;10.32;;;;;;;;;;12718398;27;20050;-77
2021/12/12 11:51:29;;;;;;;9.70;8.85;;;;;;;;;;12718235;27;20062;-76
2021/12/12 11:57:54;;;;;;;7.63;6.90;;;;;;;;;;12753033;27;20023;-78
2021/12/12 12:04:04;;;;;;;7.60;6.55;;;;;;;;;;12717657;27;20495;-76
2021/12/12 12:10:12;;;;;;;8.88;7.22;;;;;;;;;;12752057;27;20034;-76
2021/12/12 12:16:17;;;;;;;7.18;6.25;;;;;;;;;;12716744;27;20515;-77
2021/12/12 12:22:32;;;;;;;5.32;4.82;;;;;;;;;;12716889;27;20031;-77
2021/12/12 12:29:03;;;;;;;4.68;4.28;;;;;;;;;;12732965;27;20054;-77
2021/12/12 12:35:24;;;;;;;3.72;3.33;;;;;;;;;;12644205;27;20051;-77
2021/12/12 12:41:41;;;;;;;3.25;2.95;;;;;;;;;;12715970;27;20046;-77
2021/12/12 12:48:01;;;;;;;2.83;2.63;;;;;;;;;;12732171;27;20484;-77
2021/12/12 12:54:19;;;;;;;3.17;2.88;;;;;;;;;;12750117;27;20054;-76
2021/12/12 13:00:23;;;;;;;3.22;2.97;;;;;;;;;;12750093;27;20035;-76
2021/12/12 13:06:43;;;;;;;2.78;2.55;;;;;;;;;;12714435;27;20042;-75
2021/12/12 13:12:45;;;;;;;3.38;3.10;;;;;;;;;;12714100;27;20054;-75
2021/12/12 13:18:57;;;;;;;2.05;1.85;;;;;;;;;;12730831;27;20023;-75
2021/12/12 13:25:10;;;;;;;2.77;2.57;;;;;;;;;;12730247;27;20422;-75
2021/12/12 13:31:20;;;;;;;3.37;3.07;;;;;;;;;;12730099;27;20050;-76
2021/12/12 13:37:27;;;;;;;2.80;2.60;;;;;;;;;;12729596;27;20510;-77
2021/12/12 13:43:48;;;;;;;2.83;2.58;;;;;;;;;;12712756;27;20038;-77
2021/12/12 13:50:08;;;;;;;2.30;2.10;;;;;;;;;;12712365;27;20063;-76
2021/12/12 13:56:36;;;;;;;3.58;3.17;;;;;;;;;;12729245;27;20054;-77
2021/12/12 14:02:39;;;;;;;3.30;3.00;;;;;;;;;;12691649;27;20046;-77
2021/12/12 14:08:46;;;;;;;4.07;3.67;;;;;;;;;;12711860;27;20507;-77
2021/12/12 14:14:58;;;;;;;3.72;3.42;;;;;;;;;;12660664;28;20046;-76
2021/12/12 14:21:00;;;;;;;4.57;4.17;;;;;;;;;;12660852;28;20047;-76
2021/12/12 14:27:04;;;;;;;3.83;3.53;;;;;;;;;;12676845;28;20058;-76
2021/12/12 14:33:11;;;;;;;6.28;5.70;;;;;;;;;;12660020;28;20044;-76
2021/12/12 14:39:15;;;;;;;7.53;6.75;;;;;;;;;;12676317;28;20043;-76
2021/12/12 14:45:21;;;;;;;5.72;5.22;;;;;;;;;;12659167;28;20036;-76
2021/12/12 14:51:24;;;;;;;7.35;6.65;;;;;;;;;;12659202;28;20062;-76
2021/12/12 14:57:30;;;;;;;7.72;6.88;;;;;;;;;;12675948;28;20030;-77
2021/12/12 15:03:38;;;;;;;6.85;5.97;;;;;;;;;;12675879;28;20035;-76
2021/12/12 15:09:51;;;;;;;6.57;5.97;;;;;;;;;;12692336;28;20043;-77
2021/12/12 15:15:55;;;;;;;5.95;5.35;;;;;;;;;;12658581;28;20040;-76
2021/12/12 15:22:00;;;;;;;8.23;7.43;;;;;;;;;;12659137;28;20039;-77
2021/12/12 15:28:05;;;;;;;7.68;6.88;;;;;;;;;;12675104;28;20063;-75
2021/12/12 15:34:09;;;;;;;10.05;8.18;;;;;;;;;;12675135;28;20046;-77
2021/12/12 15:40:22;;;;;;;8.88;8.02;;;;;;;;;;12675334;28;20031;-76
2021/12/12 15:46:26;;;;;;;9.38;8.43;;;;;;;;;;12657795;28;20036;-77
2021/12/12 15:52:34;;;;;;;7.97;7.18;;;;;;;;;;12657635;28;20055;-77
2021/12/12 15:58:45;;;;;;;9.02;7.55;;;;;;;;;;12676789;28;20028;-77
2021/12/12 16:04:49;;;;;;;9.27;7.68;;;;;;;;;;12683556;28;20027;-76
2021/12/12 16:10:54;;;;;;;9.52;8.23;;;;;;;;;;12701593;28;20057;-76
2021/12/12 16:16:56;;;;;;;8.55;7.63;;;;;;;;;;12666104;28;20039;-76
2021/12/12 16:22:59;;;;;;;9.75;8.77;;;;;;;;;;12682937;28;20491;-77
2021/12/12 16:29:06;;;;;;;9.38;8.48;;;;;;;;;;12700449;28;20028;-78
2021/12/12 16:35:14;;;;;;;11.02;9.98;;;;;;;;;;12681889;28;20050;-78
2021/12/12 16:41:16;;;;;;;12.73;11.43;;;;;;;;;;12699023;28;20484;-77
2021/12/12 16:47:21;;;;;;;11.98;10.77;;;;;;;;;;12681540;28;20051;-77
2021/12/12 16:53:25;;;;;;;12.32;10.82;;;;;;;;;;12681604;28;20047;-76
2021/12/12 16:59:29;;;;;;;11.40;10.23;;;;;;;;;;12680882;28;20027;-77
2021/12/12 17:05:35;;;;;;;10.63;9.63;;;;;;;;;;12697477;28;20032;-77
2021/12/12 17:11:40;;;;;;;10.63;9.63;;;;;;;;;;12663326;28;20046;-77
2021/12/12 17:17:44;;;;;;;16.52;14.82;;;;;;;;;;12679990;28;20039;-76
2021/12/12 17:23:49;;;;;;;18.40;16.48;;;;;;;;;;12663364;28;20051;-77
2021/12/12 17:29:52;;;;;;;16.20;14.50;;;;;;;;;;12680058;28;20035;-77
2021/12/12 17:35:54;;;;;;;16.45;14.77;;;;;;;;;;12698135;28;20043;-77
2021/12/12 17:42:01;;;;;;;15.88;14.20;;;;;;;;;;12712893;27;20034;-75
2021/12/12 17:48:22;;;;;;;15.82;14.07;;;;;;;;;;12729564;27;20192;-76
2021/12/12 17:54:40;;;;;;;15.00;13.48;;;;;;;;;;12712354;27;20047;-76
2021/12/12 18:01:00;;;;;;;19.05;17.05;;;;;;;;;;12712108;27;20031;-76
2021/12/12 18:07:05;;;;;;;19.00;17.02;;;;;;;;;;12711589;27;20039;-77
2021/12/12 18:13:09;;;;;;;15.82;14.23;;;;;;;;;;12747266;27;20039;-77
2021/12/12 18:19:14;;;;;;;18.83;16.92;;;;;;;;;;12712079;27;20031;-76
2021/12/12 18:25:34;;;;;;;17.67;15.98;;;;;;;;;;12728277;27;20027;-77
2021/12/12 18:31:45;;;;;;;18.92;16.98;;;;;;;;;;12711399;27;20499;-77
2021/12/12 18:37:53;;;;;;;20.92;18.73;;;;;;;;;;12727942;27;20030;-77
2021/12/12 18:43:55;;;;;;;14.73;13.30;;;;;;;;;;12710508;27;20050;-77
2021/12/12 18:49:59;;;;;;;16.23;14.57;;;;;;;;;;12726927;27;20534;-77
2021/12/12 18:56:04;;;;;;;18.10;16.30;;;;;;;;;;12745292;27;20193;-77
2021/12/12 19:02:11;;;;;;;20.80;18.13;;;;;;;;;;12710048;28;20431;-78
2021/12/12 19:08:13;;;;;;;22.25;19.95;;;;;;;;;;12726771;28;20035;-76
2021/12/12 19:14:17;;;;;;;22.38;20.08;;;;;;;;;;12709873;28;20407;-75
2021/12/12 19:20:19;;;;;;;24.98;22.58;;;;;;;;;;12709964;28;20035;-76
2021/12/12 19:26:23;;;;;;;21.45;19.35;;;;;;;;;;12726360;28;20502;-77
2021/12/12 19:32:28;;;;;;;20.70;18.63;;;;;;;;;;12745289;27;20047;-76
2021/12/12 19:38:35;;;;;;;17.77;15.95;;;;;;;;;;12736051;27;20411;-77
2021/12/12 19:44:38;;;;;;;24.02;21.73;;;;;;;;;;12735810;27;20050;-77
2021/12/12 19:50:50;;;;;;;19.23;17.23;;;;;;;;;;12735581;27;20059;-76
2021/12/12 19:57:00;;;;;;;19.90;18.00;;;;;;;;;;12734965;27;20034;-76
2021/12/12 20:03:14;;;;;;;22.10;19.88;;;;;;;;;;12718005;27;20031;-77
2021/12/12 20:09:16;;;;;;;22.40;20.30;;;;;;;;;;12735284;27;20468;-78
2021/12/12 20:15:20;;;;;;;25.70;23.10;;;;;;;;;;12734466;27;20582;-76
2021/12/12 20:21:29;;;;;;;28.95;26.13;;;;;;;;;;12717068;27;20035;-77
2021/12/12 20:27:36;;;;;;;26.50;23.73;;;;;;;;;;12716520;27;20399;-79
2021/12/12 20:33:47;;;;;;;34.05;30.75;;;;;;;;;;12751400;27;20047;-77
2021/12/12 20:39:58;;;;;;;26.50;24.05;;;;;;;;;;12716520;27;20043;-77
2021/12/12 20:46:11;;;;;;;24.95;22.67;;;;;;;;;;12715487;27;20035;-77
2021/12/12 20:52:18;;;;;;;27.43;24.80;;;;;;;;;;12715622;27;20420;-76
2021/12/12 20:58:28;;;;;;;34.00;30.88;;;;;;;;;;12732215;27;20031;-77
2021/12/12 21:04:33;;;;;;;27.85;25.17;;;;;;;;;;12732225;27;20480;-77
2021/12/12 21:10:38;;;;;;;28.38;25.58;;;;;;;;;;12714663;27;20023;-76
2021/12/12 21:16:39;;;;;;;35.05;31.63;;;;;;;;;;12714200;27;20027;-77
2021/12/12 21:22:47;;;;;;;28.85;26.00;;;;;;;;;;12750414;27;20035;-78
2021/12/12 21:28:50;;;;;;;29.05;26.27;;;;;;;;;;12713830;27;20038;-78
2021/12/12 21:34:55;;;;;;;28.38;25.60;;;;;;;;;;12730816;27;20054;-77
2021/12/12 21:40:57;;;;;;;25.90;23.42;;;;;;;;;;12713015;27;20046;-77
2021/12/12 21:47:07;;;;;;;24.52;21.95;;;;;;;;;;12712776;27;20484;-77
2021/12/12 21:53:11;;;;;;;24.88;22.27;;;;;;;;;;12712354;27;20419;-78
2021/12/12 21:59:13;;;;;;;23.95;21.55;;;;;;;;;;12711510;27;20038;-76
2021/12/12 22:05:22;;;;;;;20.90;18.95;;;;;;;;;;12712110;27;20034;-76
2021/12/12 22:11:35;;;;;;;27.13;24.52;;;;;;;;;;12728831;27;20050;-76
2021/12/12 22:17:39;;;;;;;24.42;22.02;;;;;;;;;;12746641;27;20046;-77
2021/12/12 22:23:47;;;;;;;24.55;22.05;;;;;;;;;;12711713;27;20488;-76
2021/12/12 22:29:53;;;;;;;26.13;23.52;;;;;;;;;;12727878;27;20035;-77
2021/12/12 22:35:57;;;;;;;27.05;23.73;;;;;;;;;;12710754;27;20047;-76
2021/12/12 22:42:09;;;;;;;25.98;23.27;;;;;;;;;;12727230;27;20389;-76
2021/12/12 22:48:16;;;;;;;24.23;21.80;;;;;;;;;;12710409;28;20395;-76
2021/12/12 22:54:29;;;;;;;24.17;21.70;;;;;;;;;;12727143;27;20059;-77
2021/12/12 23:00:31;;;;;;;23.90;21.45;;;;;;;;;;12709977;28;20031;-76
2021/12/12 23:06:37;;;;;;;20.52;18.55;;;;;;;;;;12727741;27;20038;-76
2021/12/12 23:12:46;;;;;;;21.85;19.70;;;;;;;;;;12737371;27;20046;-76
2021/12/12 23:18:53;;;;;;;21.50;19.27;;;;;;;;;;12755317;27;20042;-76
2021/12/12 23:24:58;;;;;;;23.10;20.73;;;;;;;;;;12736893;27;20042;-76
2021/12/12 23:31:00;;;;;;;25.77;23.10;;;;;;;;;;12720171;27;20035;-76
2021/12/12 23:37:08;;;;;;;23.80;21.52;;;;;;;;;;12736185;27;20047;-76
2021/12/12 23:43:18;;;;;;;24.23;21.70;;;;;;;;;;12735829;27;20046;-76
2021/12/12 23:49:30;;;;;;;24.23;21.83;;;;;;;;;;12735752;27;20049;-76
2021/12/12 23:55:43;;;;;;;22.50;20.33;;;;;;;;;;12718440;27;20050;-75
